Time;durP1;ratioP1;P1;durP2;ratioP2;P2;SDS_P1;SDS_P2;PMS_P1;PMS_P2;Temp;Humidity;BMP_temperature;BMP_pressure;BME280_temperature;BME280_humidity;BME280_pressure;Samples;Min_cycle;Max_cycle;Signal;HPM_P1;HPM_P2
2021/05/19 00:01:34;;;;;;;2.65;2.45;;;9.90;99.90;;;;;;5052376;28;20649;-82
2021/05/19 00:04:01;;;;;;;2.47;2.15;;;9.90;99.90;;;;;;5052988;28;20269;-82
2021/05/19 00:06:27;;;;;;;2.10;2.00;;;9.80;99.90;;;;;;5052347;28;20204;-81
2021/05/19 00:08:54;;;;;;;2.70;2.50;;;9.80;99.90;;;;;;5053225;28;20235;-82
2021/05/19 00:11:20;;;;;;;2.42;2.28;;;9.80;99.90;;;;;;5053484;28;20204;-82
2021/05/19 00:13:47;;;;;;;2.70;2.50;;;9.90;99.90;;;;;;5053537;28;20208;-82
2021/05/19 00:16:13;;;;;;;2.60;2.40;;;10.00;99.90;;;;;;5053059;28;20302;-82
2021/05/19 00:18:41;;;;;;;2.13;1.92;;;10.10;99.90;;;;;;5052674;28;20286;-82
2021/05/19 00:21:08;;;;;;;3.00;2.70;;;10.20;99.90;;;;;;5052662;28;20697;-82
2021/05/19 00:23:34;;;;;;;2.90;2.47;;;10.10;99.90;;;;;;5052557;28;20204;-82
2021/05/19 00:26:01;;;;;;;2.97;2.78;;;10.20;99.90;;;;;;5053225;28;20232;-82
2021/05/19 00:28:27;;;;;;;2.72;2.53;;;10.20;99.90;;;;;;5053124;28;20577;-82
2021/05/19 00:30:56;;;;;;;3.55;3.25;;;10.20;99.90;;;;;;5052545;28;20536;-82
2021/05/19 00:33:23;;;;;;;2.35;2.20;;;10.20;99.90;;;;;;5045224;28;20243;-82
2021/05/19 00:35:50;;;;;;;2.45;2.25;;;10.30;99.90;;;;;;5052776;28;20286;-82
2021/05/19 00:38:17;;;;;;;7.35;3.00;;;10.30;99.90;;;;;;5052502;28;20250;-82
2021/05/19 00:40:43;;;;;;;5.15;2.63;;;10.30;99.90;;;;;;5052038;28;20255;-82
2021/05/19 00:43:09;;;;;;;3.00;2.78;;;10.30;99.90;;;;;;5052657;28;20204;-82
2021/05/19 00:45:36;;;;;;;3.83;3.00;;;10.40;99.90;;;;;;5052107;28;20250;-82
2021/05/19 00:48:03;;;;;;;3.63;2.75;;;10.50;99.90;;;;;;5052569;28;20638;-82
2021/05/19 00:50:32;;;;;;;2.75;2.25;;;10.40;99.90;;;;;;5052137;28;20239;-82
2021/05/19 00:52:59;;;;;;;2.40;2.20;;;10.40;99.90;;;;;;5051861;28;20258;-82
2021/05/19 00:55:26;;;;;;;3.30;3.00;;;10.30;99.90;;;;;;5052462;28;20658;-82
2021/05/19 00:57:54;;;;;;;2.80;2.60;;;10.40;99.90;;;;;;5052340;28;21202;-82
2021/05/19 01:00:22;;;;;;;3.10;2.90;;;10.50;99.90;;;;;;5050963;28;20322;-82
2021/05/19 01:02:51;;;;;;;2.90;2.70;;;10.40;99.90;;;;;;5031760;28;21175;-82
2021/05/19 01:05:24;;;;;;;2.55;2.35;;;10.60;99.90;;;;;;5020137;28;20642;-82
2021/05/19 01:10:39;;;;;;;3.50;2.70;;;10.60;99.90;;;;;;5051157;28;20728;-82
2021/05/19 01:13:08;;;;;;;2.50;2.30;;;10.40;99.40;;;;;;5051768;28;20547;-82
2021/05/19 01:15:37;;;;;;;2.70;2.43;;;10.40;99.90;;;;;;5052006;28;20700;-82
2021/05/19 01:18:05;;;;;;;2.47;2.33;;;10.40;99.90;;;;;;5051862;28;21412;-82
2021/05/19 01:20:33;;;;;;;3.38;2.97;;;10.30;99.90;;;;;;5051365;28;20714;-82
2021/05/19 01:23:02;;;;;;;2.93;2.73;;;10.30;99.90;;;;;;5051394;28;20188;-82
2021/05/19 01:25:31;;;;;;;3.20;2.88;;;10.30;99.90;;;;;;5051334;28;20634;-81
2021/05/19 01:28:01;;;;;;;3.50;3.13;;;10.40;99.90;;;;;;5051460;28;20641;-82
2021/05/19 01:30:29;;;;;;;2.57;2.33;;;10.40;99.70;;;;;;5051346;28;20622;-82
2021/05/19 01:32:56;;;;;;;2.72;2.53;;;10.30;99.90;;;;;;5051408;28;20688;-81
2021/05/19 01:35:24;;;;;;;2.45;2.30;;;10.30;99.80;;;;;;5051679;28;20657;-82
2021/05/19 01:37:51;;;;;;;2.73;2.50;;;10.40;99.70;;;;;;5051446;28;20196;-82
2021/05/19 01:40:22;;;;;;;3.53;2.50;;;10.60;99.90;;;;;;5050916;28;20626;-82
2021/05/19 01:42:52;;;;;;;2.93;2.73;;;10.70;99.90;;;;;;5044028;28;21420;-82
2021/05/19 01:45:24;;;;;;;3.28;2.97;;;10.80;99.90;;;;;;5051784;28;20626;-81
2021/05/19 01:47:53;;;;;;;2.80;2.60;;;10.80;99.90;;;;;;5051378;28;20199;-81
2021/05/19 01:50:22;;;;;;;3.47;3.00;;;10.90;99.80;;;;;;5050857;28;20618;-82
2021/05/19 01:52:52;;;;;;;3.40;3.10;;;10.90;99.80;;;;;;5050353;28;20603;-82
2021/05/19 01:55:22;;;;;;;3.58;3.28;;;11.00;99.60;;;;;;5048047;28;20235;-82
2021/05/19 01:57:51;;;;;;;3.45;3.15;;;11.00;99.10;;;;;;5048036;28;20204;-82
2021/05/19 02:00:22;;;;;;;3.30;2.70;;;11.00;99.20;;;;;;5048029;28;20222;-82
2021/05/19 02:02:58;;;;;;;3.10;2.77;;;11.20;98.90;;;;;;5049174;28;21029;-82
2021/05/19 02:05:26;;;;;;;3.83;2.80;;;11.20;98.10;;;;;;5050599;28;20686;-82
2021/05/19 02:07:55;;;;;;;2.47;2.27;;;11.20;97.80;;;;;;5050981;28;20762;-82
2021/05/19 02:10:24;;;;;;;3.07;2.87;;;11.20;97.90;;;;;;5050337;28;20789;-82
2021/05/19 02:12:52;;;;;;;5.00;2.80;;;11.20;98.20;;;;;;5050644;28;20654;-82
2021/05/19 02:15:20;;;;;;;2.80;2.60;;;11.30;97.90;;;;;;5050625;28;20649;-82
2021/05/19 02:17:47;;;;;;;2.63;2.43;;;11.20;97.60;;;;;;5050499;28;20993;-82
2021/05/19 02:20:18;;;;;;;3.33;3.00;;;11.30;97.40;;;;;;5049562;28;20626;-82
2021/05/19 02:22:48;;;;;;;2.97;2.67;;;11.10;97.90;;;;;;5050301;28;20749;-82
2021/05/19 02:25:15;;;;;;;3.45;3.25;;;11.00;98.00;;;;;;5050786;28;20952;-82
2021/05/19 02:27:44;;;;;;;2.40;2.20;;;10.90;98.10;;;;;;5051037;28;20557;-82
2021/05/19 02:30:12;;;;;;;3.10;2.80;;;10.90;98.40;;;;;;5049355;28;21032;-82
2021/05/19 02:32:39;;;;;;;3.97;3.00;;;11.00;98.70;;;;;;5032027;28;20954;-81
2021/05/19 02:35:07;;;;;;;3.17;2.87;;;10.90;98.40;;;;;;5049467;28;20228;-82
2021/05/19 02:37:34;;;;;;;3.20;2.90;;;10.90;98.50;;;;;;5050417;28;20725;-82
2021/05/19 02:40:01;;;;;;;2.80;2.60;;;11.00;98.90;;;;;;5049716;28;20611;-82
2021/05/19 02:42:27;;;;;;;2.57;2.37;;;10.90;98.60;;;;;;5050104;28;20626;-82
2021/05/19 02:44:54;;;;;;;2.63;2.43;;;10.70;98.40;;;;;;5049022;28;20630;-82
2021/05/19 02:47:21;;;;;;;2.90;2.60;;;10.40;98.50;;;;;;5050571;28;20637;-82
2021/05/19 02:49:47;;;;;;;2.77;2.57;;;10.40;99.20;;;;;;5049955;28;20211;-82
2021/05/19 02:52:14;;;;;;;2.87;2.67;;;10.50;99.90;;;;;;5045296;28;20642;-82
2021/05/19 02:54:41;;;;;;;3.22;3.03;;;10.50;99.40;;;;;;5047085;28;20615;-82
2021/05/19 02:57:08;;;;;;;3.05;2.85;;;10.50;99.10;;;;;;5049726;28;20219;-81
2021/05/19 02:59:34;;;;;;;3.00;2.70;;;10.50;99.20;;;;;;5049959;28;20258;-82
2021/05/19 03:02:02;;;;;;;3.00;2.80;;;10.60;99.70;;;;;;5049659;28;20704;-82
2021/05/19 03:04:29;;;;;;;2.80;2.60;;;10.60;99.50;;;;;;5050292;28;20618;-82
2021/05/19 03:06:55;;;;;;;3.53;3.20;;;10.50;98.60;;;;;;5050511;28;20617;-82
2021/05/19 03:09:22;;;;;;;3.75;2.97;;;10.30;99.10;;;;;;5049738;28;21127;-82
2021/05/19 03:11:48;;;;;;;2.70;2.50;;;10.20;98.70;;;;;;5049740;28;20666;-82
2021/05/19 03:14:15;;;;;;;2.80;2.60;;;10.10;99.20;;;;;;5049421;28;20637;-82
2021/05/19 03:16:41;;;;;;;2.70;2.50;;;10.30;99.90;;;;;;5050174;28;20231;-81
2021/05/19 03:19:09;;;;;;;3.00;2.67;;;10.20;99.90;;;;;;5049016;28;20974;-82
2021/05/19 03:21:36;;;;;;;3.70;3.40;;;10.20;99.90;;;;;;5050212;28;20324;-82
2021/05/19 03:24:03;;;;;;;3.45;2.65;;;10.10;99.90;;;;;;5049218;28;20208;-81
2021/05/19 03:26:29;;;;;;;5.22;3.05;;;10.20;99.90;;;;;;5049342;28;20204;-82
2021/05/19 03:28:56;;;;;;;3.50;3.05;;;10.20;99.90;;;;;;5048895;28;20679;-81
2021/05/19 03:31:22;;;;;;;2.17;2.00;;;10.20;99.90;;;;;;5050350;28;20254;-81
2021/05/19 03:33:48;;;;;;;3.10;2.80;;;10.20;99.90;;;;;;5049464;28;20654;-81
2021/05/19 03:36:16;;;;;;;3.42;3.13;;;10.20;99.90;;;;;;5049776;28;20211;-81
2021/05/19 03:38:42;;;;;;;3.90;3.60;;;9.90;99.90;;;;;;5049062;28;20208;-81
2021/05/19 03:41:09;;;;;;;4.22;3.17;;;10.00;99.90;;;;;;5049267;28;20788;-81
2021/05/19 03:43:36;;;;;;;4.25;3.17;;;10.10;99.90;;;;;;5049794;28;20261;-81
2021/05/19 03:46:02;;;;;;;3.37;3.07;;;10.10;99.90;;;;;;5049423;28;20671;-82
2021/05/19 03:48:29;;;;;;;3.20;2.90;;;10.10;99.90;;;;;;5049467;28;20622;-82
2021/05/19 03:50:56;;;;;;;3.55;3.28;;;10.20;99.90;;;;;;5049155;28;20629;-81
2021/05/19 03:53:24;;;;;;;3.93;3.23;;;10.10;99.90;;;;;;5048834;28;20258;-81
2021/05/19 03:55:50;;;;;;;3.78;3.47;;;10.20;99.80;;;;;;5048893;28;20618;-81
2021/05/19 03:58:17;;;;;;;3.65;3.10;;;10.20;99.60;;;;;;5049961;28;20211;-81
2021/05/19 04:00:44;;;;;;;3.47;3.17;;;10.20;99.50;;;;;;5048476;28;20212;-81
2021/05/19 04:03:10;;;;;;;3.38;2.60;;;10.20;99.30;;;;;;5042064;28;20709;-81
2021/05/19 04:05:38;;;;;;;3.10;2.90;;;10.00;99.10;;;;;;5049646;28;20218;-82
2021/05/19 04:08:05;;;;;;;2.85;2.65;;;10.00;99.10;;;;;;5048922;28;20196;-81
2021/05/19 04:10:33;;;;;;;5.32;2.92;;;10.10;99.50;;;;;;5049142;28;20195;-81
2021/05/19 04:13:03;;;;;;;2.67;2.50;;;10.00;99.90;;;;;;5049220;28;20220;-82
2021/05/19 04:15:30;;;;;;;3.50;3.17;;;10.00;99.90;;;;;;5049903;28;20717;-82
2021/05/19 04:17:57;;;;;;;3.80;3.50;;;10.10;99.90;;;;;;5049120;28;20247;-81
2021/05/19 04:20:25;;;;;;;3.95;3.65;;;10.20;99.90;;;;;;5048829;28;20210;-81
2021/05/19 04:22:52;;;;;;;3.60;3.30;;;10.30;99.80;;;;;;5047389;28;20595;-82
2021/05/19 04:25:19;;;;;;;3.40;3.20;;;10.30;99.60;;;;;;5049368;28;20204;-81
2021/05/19 04:27:46;;;;;;;3.55;3.25;;;10.30;99.90;;;;;;5029676;28;20373;-81
2021/05/19 04:30:14;;;;;;;5.95;3.53;;;10.30;99.50;;;;;;5048473;28;20236;-82
2021/05/19 04:32:40;;;;;;;4.05;3.75;;;10.20;99.50;;;;;;5048784;28;20553;-82
2021/05/19 04:35:08;;;;;;;3.13;2.92;;;10.10;99.00;;;;;;5049063;28;20242;-82
2021/05/19 04:37:35;;;;;;;4.28;3.88;;;10.30;99.30;;;;;;5053096;28;20294;-82
2021/05/19 04:40:02;;;;;;;3.95;3.65;;;10.10;98.90;;;;;;5051984;28;20662;-81
2021/05/19 04:42:29;;;;;;;4.07;3.67;;;10.20;99.00;;;;;;5052833;28;20220;-81
2021/05/19 04:44:56;;;;;;;3.58;3.28;;;10.20;98.90;;;;;;5052666;28;20266;-81
2021/05/19 04:47:22;;;;;;;3.60;3.30;;;10.30;98.70;;;;;;5051898;28;20578;-81
2021/05/19 04:49:48;;;;;;;4.13;3.83;;;10.40;98.60;;;;;;5051578;28;20605;-81
2021/05/19 04:52:15;;;;;;;4.30;3.90;;;10.40;98.30;;;;;;5052277;28;20204;-81
2021/05/19 04:54:41;;;;;;;9.98;4.63;;;10.40;98.70;;;;;;5052070;28;20630;-81
2021/05/19 04:57:08;;;;;;;3.83;3.53;;;10.20;98.00;;;;;;5052569;28;20204;-82
2021/05/19 04:59:34;;;;;;;4.30;3.90;;;10.20;98.40;;;;;;5051416;28;20231;-82
2021/05/19 05:02:01;;;;;;;5.00;4.50;;;10.30;98.70;;;;;;5051838;28;20684;-82
2021/05/19 05:04:28;;;;;;;4.83;4.43;;;10.30;98.60;;;;;;5052200;28;20633;-82
2021/05/19 05:06:54;;;;;;;4.70;4.30;;;10.20;98.90;;;;;;5052673;28;21007;-82
2021/05/19 05:09:21;;;;;;;4.93;4.53;;;10.20;99.40;;;;;;5052220;28;20613;-82
2021/05/19 05:11:47;;;;;;;5.50;4.87;;;10.40;99.00;;;;;;5052713;28;20253;-83
2021/05/19 05:14:13;;;;;;;4.77;4.37;;;10.60;98.70;;;;;;5051748;28;20657;-83
2021/05/19 05:16:40;;;;;;;4.50;4.13;;;10.60;98.90;;;;;;5046191;28;21238;-83
2021/05/19 05:19:07;;;;;;;4.33;4.00;;;10.60;98.10;;;;;;5051660;28;20622;-83
2021/05/19 05:21:33;;;;;;;4.67;4.27;;;10.70;98.30;;;;;;5052047;28;20683;-82
2021/05/19 05:24:00;;;;;;;5.03;4.20;;;10.80;98.80;;;;;;5052137;28;20746;-83
2021/05/19 05:26:27;;;;;;;4.60;4.20;;;10.90;98.10;;;;;;5051462;28;20658;-82
2021/05/19 05:28:53;;;;;;;6.40;4.77;;;11.00;98.00;;;;;;5049927;28;20661;-82
2021/05/19 05:31:20;;;;;;;4.47;4.17;;;11.00;98.10;;;;;;5050585;28;20717;-82
2021/05/19 05:33:47;;;;;;;3.93;3.63;;;10.90;97.50;;;;;;5051454;28;20625;-83
2021/05/19 05:36:14;;;;;;;5.47;4.90;;;10.90;98.00;;;;;;5051691;28;20634;-83
2021/05/19 05:38:41;;;;;;;4.50;4.10;;;10.90;97.80;;;;;;5047537;28;20637;-82
2021/05/19 05:41:08;;;;;;;4.90;4.50;;;11.00;98.00;;;;;;5050943;28;20633;-83
2021/05/19 05:43:35;;;;;;;5.50;5.10;;;10.90;97.30;;;;;;5051496;28;20650;-83
2021/05/19 05:46:01;;;;;;;5.10;4.70;;;11.10;97.50;;;;;;5051278;28;20626;-83
2021/05/19 05:48:28;;;;;;;5.20;4.60;;;11.20;97.40;;;;;;5050771;28;20611;-83
2021/05/19 05:50:54;;;;;;;5.30;4.80;;;11.00;97.20;;;;;;5051184;28;20619;-83
2021/05/19 05:53:22;;;;;;;5.10;4.60;;;11.20;97.40;;;;;;5051563;28;20943;-83
2021/05/19 05:55:49;;;;;;;4.90;4.43;;;11.30;97.20;;;;;;5050832;28;20622;-83
2021/05/19 05:58:15;;;;;;;6.83;5.00;;;11.30;97.30;;;;;;5051450;28;20614;-83
2021/05/19 06:00:42;;;;;;;5.30;4.90;;;11.20;97.30;;;;;;5050188;28;20622;-82
2021/05/19 06:03:08;;;;;;;5.47;4.20;;;11.20;97.00;;;;;;5050371;28;21222;-83
2021/05/19 06:05:35;;;;;;;5.50;5.00;;;11.00;96.60;;;;;;5051209;28;20638;-84
2021/05/19 06:08:04;;;;;;;4.87;4.50;;;11.10;97.50;;;;;;5051508;28;20634;-83
2021/05/19 06:10:32;;;;;;;5.50;5.03;;;11.00;96.50;;;;;;5050878;28;21012;-83
2021/05/19 06:12:58;;;;;;;5.20;4.70;;;10.90;97.00;;;;;;5051332;28;20605;-83
2021/05/19 06:15:26;;;;;;;4.77;4.37;;;10.90;97.40;;;;;;5050808;28;20609;-83
2021/05/19 06:17:52;;;;;;;10.40;5.00;;;11.10;97.40;;;;;;5051656;28;20614;-83
2021/05/19 06:20:19;;;;;;;7.43;4.03;;;11.30;97.10;;;;;;5050776;28;20625;-83
2021/05/19 06:22:46;;;;;;;4.53;4.13;;;11.30;96.10;;;;;;5051327;28;20638;-82
2021/05/19 06:25:15;;;;;;;6.50;5.17;;;11.20;96.80;;;;;;5051146;28;20626;-83
2021/05/19 06:27:43;;;;;;;7.60;5.07;;;11.40;96.70;;;;;;5050654;28;20630;-84
2021/05/19 06:30:10;;;;;;;5.37;4.87;;;11.40;96.40;;;;;;5050752;28;20617;-83
2021/05/19 06:32:37;;;;;;;4.90;4.37;;;11.40;96.60;;;;;;5045515;28;20641;-83
2021/05/19 06:35:04;;;;;;;4.27;3.97;;;11.50;96.50;;;;;;5050663;28;21224;-83
2021/05/19 06:37:30;;;;;;;6.27;4.90;;;11.70;96.30;;;;;;5051169;28;20614;-83
2021/05/19 06:39:57;;;;;;;4.57;4.27;;;11.90;95.50;;;;;;5050403;28;21016;-82
2021/05/19 06:42:23;;;;;;;4.90;4.50;;;11.90;95.70;;;;;;5050448;28;20634;-83
2021/05/19 06:44:51;;;;;;;5.23;4.73;;;12.10;95.50;;;;;;5050424;28;20622;-82
2021/05/19 06:47:17;;;;;;;4.77;4.37;;;12.40;95.40;;;;;;5050050;28;20625;-83
2021/05/19 06:49:43;;;;;;;4.23;3.93;;;12.50;95.10;;;;;;5050019;28;20665;-83
2021/05/19 06:52:10;;;;;;;4.90;4.50;;;12.40;95.10;;;;;;5050776;28;20622;-83
2021/05/19 06:54:36;;;;;;;8.47;4.57;;;12.50;95.10;;;;;;5049744;28;20626;-82
2021/05/19 06:57:03;;;;;;;4.83;4.40;;;12.60;95.20;;;;;;5050183;28;20626;-83
2021/05/19 06:59:30;;;;;;;4.17;3.87;;;12.60;94.40;;;;;;5051048;28;20626;-82
2021/05/19 07:01:57;;;;;;;3.63;3.33;;;12.50;94.60;;;;;;5050961;28;20649;-83
2021/05/19 07:04:23;;;;;;;4.17;3.87;;;12.70;94.60;;;;;;5048392;28;20626;-82
2021/05/19 07:06:50;;;;;;;4.03;3.67;;;12.80;94.50;;;;;;5050303;28;20606;-83
2021/05/19 07:09:18;;;;;;;4.20;3.80;;;12.60;93.60;;;;;;5049986;28;20614;-82
2021/05/19 07:11:44;;;;;;;4.20;3.90;;;12.60;94.30;;;;;;5050622;28;20622;-82
2021/05/19 07:14:15;;;;;;;3.57;3.27;;;12.80;93.80;;;;;;5049926;28;20637;-82
2021/05/19 07:16:48;;;;;;;3.90;3.60;;;12.80;93.30;;;;;;5050787;28;20962;-82
2021/05/19 07:19:15;;;;;;;3.60;3.30;;;13.10;93.60;;;;;;5049911;28;21267;-82
2021/05/19 07:21:42;;;;;;;3.47;2.57;;;13.60;93.00;;;;;;5050082;28;20716;-83
2021/05/19 07:24:11;;;;;;;2.50;2.40;;;13.80;92.80;;;;;;5049417;28;20673;-82
2021/05/19 07:26:38;;;;;;;3.47;2.90;;;13.90;91.80;;;;;;5050758;28;20635;-83
2021/05/19 07:29:04;;;;;;;2.90;2.57;;;13.40;90.70;;;;;;5049967;28;20620;-82
2021/05/19 07:31:31;;;;;;;3.87;3.57;;;13.10;91.30;;;;;;5050254;28;20905;-82
2021/05/19 07:33:58;;;;;;;5.90;3.67;;;12.80;88.60;;;;;;5050226;28;20725;-82
2021/05/19 07:36:25;;;;;;;2.77;2.47;;;12.40;90.80;;;;;;5049902;28;20777;-82
2021/05/19 07:38:52;;;;;;;3.90;2.80;;;12.30;90.80;;;;;;5050377;28;20614;-82
2021/05/19 07:41:19;;;;;;;3.37;3.10;;;12.20;91.70;;;;;;5049928;28;21002;-83
2021/05/19 07:43:45;;;;;;;3.43;2.80;;;12.30;91.50;;;;;;5050151;28;20615;-83
2021/05/19 07:46:12;;;;;;;3.47;3.17;;;12.50;92.30;;;;;;5049676;28;20630;-82
2021/05/19 07:48:38;;;;;;;4.60;3.43;;;12.40;91.70;;;;;;5049844;28;20630;-82
2021/05/19 07:51:05;;;;;;;3.30;3.00;;;12.50;91.90;;;;;;5049212;28;20623;-83
2021/05/19 07:53:32;;;;;;;3.17;2.87;;;12.70;92.20;;;;;;5043392;28;20658;-83
2021/05/19 07:56:03;;;;;;;3.83;3.10;;;12.70;92.00;;;;;;5050008;28;20626;-83
2021/05/19 07:58:33;;;;;;;6.27;3.50;;;12.60;91.90;;;;;;5050068;28;20694;-83
2021/05/19 08:01:11;;;;;;;3.70;3.00;;;12.60;91.10;;;;;;5049886;28;20660;-83
2021/05/19 08:03:38;;;;;;;4.33;2.93;;;12.60;91.50;;;;;;5046184;28;20737;-82
2021/05/19 08:06:05;;;;;;;3.73;3.43;;;13.00;91.40;;;;;;5050345;28;20610;-83
2021/05/19 08:08:33;;;;;;;3.80;3.40;;;12.90;91.30;;;;;;5049689;28;20640;-82
2021/05/19 08:10:59;;;;;;;3.10;2.90;;;13.00;91.70;;;;;;5052561;28;20622;-83
2021/05/19 08:13:26;;;;;;;3.43;3.13;;;12.90;90.80;;;;;;5054430;28;21319;-83
2021/05/19 08:15:52;;;;;;;3.33;3.03;;;13.00;91.00;;;;;;5053603;28;20634;-83
2021/05/19 08:18:19;;;;;;;4.20;3.90;;;13.00;91.00;;;;;;5053355;28;20618;-82
2021/05/19 08:20:45;;;;;;;3.00;2.80;;;13.30;90.70;;;;;;5051268;28;20623;-82
2021/05/19 08:23:12;;;;;;;3.27;3.07;;;13.20;90.50;;;;;;5052210;28;20682;-83
2021/05/19 08:25:39;;;;;;;3.30;3.00;;;13.50;91.30;;;;;;5053626;28;20619;-83
2021/05/19 08:28:06;;;;;;;3.40;3.10;;;13.50;90.70;;;;;;5053781;28;20680;-83
2021/05/19 08:30:32;;;;;;;3.47;3.17;;;13.40;89.30;;;;;;5053235;28;20626;-83
2021/05/19 08:32:58;;;;;;;4.70;3.00;;;13.20;88.10;;;;;;5053980;28;21198;-83
2021/05/19 08:35:25;;;;;;;3.10;2.90;;;13.30;89.10;;;;;;5052397;28;21311;-83
2021/05/19 08:37:52;;;;;;;3.87;3.57;;;13.50;90.30;;;;;;5049538;28;20718;-83
2021/05/19 08:40:18;;;;;;;4.47;4.07;;;13.60;89.50;;;;;;5054224;28;20699;-84
2021/05/19 08:42:46;;;;;;;3.00;2.80;;;13.60;88.20;;;;;;5053811;28;20644;-83
2021/05/19 08:45:12;;;;;;;2.97;2.77;;;13.90;88.40;;;;;;5053097;28;20619;-84
2021/05/19 08:47:39;;;;;;;4.23;3.53;;;14.20;87.70;;;;;;5053668;28;20985;-84
2021/05/19 08:50:08;;;;;;;3.47;3.17;;;14.10;85.80;;;;;;5053654;28;20635;-84
2021/05/19 08:52:38;;;;;;;3.40;3.10;;;14.10;86.40;;;;;;5053544;28;20613;-83
2021/05/19 08:55:10;;;;;;;3.30;3.10;;;14.40;86.80;;;;;;5051653;28;20621;-83
2021/05/19 08:57:40;;;;;;;2.73;2.53;;;14.50;82.40;;;;;;5053077;28;20610;-84
2021/05/19 09:00:09;;;;;;;3.50;3.30;;;14.40;81.50;;;;;;5058367;28;20635;-84
2021/05/19 09:02:36;;;;;;;6.27;3.00;;;14.30;83.60;;;;;;5053794;28;20649;-84
2021/05/19 09:05:05;;;;;;;4.83;2.33;;;14.70;84.20;;;;;;5051758;28;20614;-85
2021/05/19 09:07:32;;;;;;;4.47;2.20;;;14.70;82.40;;;;;;5052008;28;21044;-84
2021/05/19 09:10:15;;;;;;;2.97;2.40;;;14.80;82.30;;;;;;5052651;28;21178;-83
2021/05/19 09:12:44;;;;;;;6.33;2.87;;;14.40;82.30;;;;;;5053305;28;20690;-84
2021/05/19 09:15:13;;;;;;;5.07;3.07;;;14.80;85.10;;;;;;5052708;28;20629;-82
2021/05/19 09:17:40;;;;;;;2.57;2.37;;;14.70;83.20;;;;;;5052615;28;21201;-82
2021/05/19 09:20:09;;;;;;;2.53;2.33;;;14.50;82.90;;;;;;5052032;28;21292;-82
2021/05/19 09:22:36;;;;;;;2.77;2.30;;;14.40;83.00;;;;;;5051286;28;20747;-82
2021/05/19 09:25:15;;;;;;;2.23;2.13;;;14.50;81.50;;;;;;5050799;28;20632;-84
2021/05/19 09:27:44;;;;;;;2.27;2.07;;;14.50;82.00;;;;;;5049563;28;20957;-83
2021/05/19 09:30:12;;;;;;;1.80;1.70;;;14.60;80.50;;;;;;5051878;28;20628;-85
2021/05/19 09:32:43;;;;;;;2.57;2.37;;;14.90;79.20;;;;;;5052472;28;20624;-84
2021/05/19 09:35:12;;;;;;;2.67;1.87;;;14.80;75.40;;;;;;5051555;28;20650;-84
2021/05/19 09:37:39;;;;;;;1.33;1.20;;;14.90;74.90;;;;;;5050565;28;21334;-84
2021/05/19 09:40:07;;;;;;;2.20;1.63;;;14.70;74.80;;;;;;5051105;28;21244;-85
2021/05/19 09:42:49;;;;;;;1.97;1.60;;;14.70;74.70;;;;;;5051572;28;20649;-86
2021/05/19 09:45:18;;;;;;;1.80;1.70;;;14.70;69.40;;;;;;5051831;28;20620;-85
2021/05/19 09:47:46;;;;;;;3.73;1.40;;;15.10;74.90;;;;;;5045874;28;20688;-86
2021/05/19 09:50:15;;;;;;;1.87;1.40;;;15.40;71.10;;;;;;5051246;28;20619;-85
2021/05/19 09:53:02;;;;;;;1.60;1.50;;;15.50;69.90;;;;;;5051316;28;21285;-85
2021/05/19 09:55:29;;;;;;;1.40;1.30;;;15.60;67.50;;;;;;5044548;28;20972;-85
2021/05/19 09:57:56;;;;;;;0.83;0.80;;;16.00;68.00;;;;;;5051150;28;21005;-87
2021/05/19 10:00:26;;;;;;;1.03;1.03;;;15.80;59.60;;;;;;5051021;28;20760;-86
2021/05/19 10:02:53;;;;;;;1.60;1.50;;;15.80;61.80;;;;;;5051230;28;20654;-85
2021/05/19 10:05:22;;;;;;;1.00;1.00;;;15.70;61.90;;;;;;5051049;28;20649;-86
2021/05/19 10:07:49;;;;;;;1.40;0.87;;;15.60;64.30;;;;;;5049077;28;20629;-85
2021/05/19 10:10:15;;;;;;;1.70;1.30;;;15.60;60.10;;;;;;5051343;28;20618;-85
2021/05/19 10:12:42;;;;;;;1.17;1.17;;;15.70;60.90;;;;;;5050947;28;20629;-85
2021/05/19 10:15:13;;;;;;;1.00;1.00;;;15.80;63.30;;;;;;5051775;28;20594;-84
2021/05/19 10:17:43;;;;;;;0.80;0.80;;;15.50;57.70;;;;;;5051853;28;20619;-86
2021/05/19 10:20:14;;;;;;;0.97;0.87;;;15.90;60.40;;;;;;5050686;28;20618;-85
2021/05/19 10:22:45;;;;;;;0.90;0.90;;;16.20;59.00;;;;;;5050380;28;20707;-86
2021/05/19 10:25:32;;;;;;;1.00;0.80;;;16.50;57.60;;;;;;5051557;28;21415;-86
2021/05/19 10:28:02;;;;;;;0.80;0.80;;;16.20;56.30;;;;;;5051839;28;20629;-86
2021/05/19 10:30:43;;;;;;;1.63;0.87;;;16.00;56.00;;;;;;5051336;28;20623;-86
2021/05/19 10:33:45;;;;;;;0.90;0.50;;;16.40;57.70;;;;;;5050383;28;20713;-86
2021/05/19 10:36:41;;;;;;;1.33;0.97;;;16.80;54.90;;;;;;5051294;28;20641;-84
2021/05/19 10:39:22;;;;;;;0.83;0.83;;;17.00;55.00;;;;;;5051648;28;20840;-85
2021/05/19 10:41:50;;;;;;;1.57;1.00;;;17.20;54.70;;;;;;5051891;28;21045;-86
2021/05/19 10:44:18;;;;;;;3.13;0.93;;;17.10;55.40;;;;;;5050840;28;21003;-84
2021/05/19 10:46:58;;;;;;;1.63;1.17;;;17.10;56.80;;;;;;5051678;28;20673;-86
2021/05/19 10:50:08;;;;;;;1.23;1.13;;;17.20;52.70;;;;;;5050600;28;20610;-85
2021/05/19 10:58:37;;;;;;;0.93;0.90;;;17.10;51.90;;;;;;5043076;28;21042;-85
2021/05/19 11:01:05;;;;;;;0.90;0.70;;;16.80;51.40;;;;;;5050207;28;20733;-86
2021/05/19 11:03:32;;;;;;;1.63;1.17;;;17.00;52.20;;;;;;5048700;28;20654;-86
2021/05/19 11:06:08;;;;;;;1.43;1.10;;;17.60;54.00;;;;;;5046379;28;20667;-86
2021/05/19 11:08:39;;;;;;;0.97;0.87;;;17.90;53.40;;;;;;5049604;28;20618;-86
2021/05/19 11:11:27;;;;;;;6.70;1.47;;;18.20;53.50;;;;;;5030266;28;20617;-86
2021/05/19 11:14:19;;;;;;;2.77;0.93;;;18.30;53.10;;;;;;5050765;28;20631;-86
2021/05/19 11:17:00;;;;;;;0.83;0.83;;;18.00;50.40;;;;;;5050858;28;20729;-87
2021/05/19 11:19:28;;;;;;;1.53;0.70;;;18.50;52.90;;;;;;5050063;28;20627;-87
2021/05/19 11:22:00;;;;;;;1.60;0.90;;;19.00;47.90;;;;;;5050565;28;20649;-86
2021/05/19 11:24:27;;;;;;;1.07;0.97;;;19.40;49.40;;;;;;5050232;28;20622;-84
2021/05/19 11:26:54;;;;;;;0.83;0.83;;;19.70;47.80;;;;;;5050144;28;20649;-84
2021/05/19 11:29:21;;;;;;;0.90;0.90;;;19.80;46.90;;;;;;5049438;28;20627;-85
2021/05/19 11:31:49;;;;;;;3.07;1.00;;;19.50;46.90;;;;;;5048551;28;20619;-85
2021/05/19 11:34:18;;;;;;;0.80;0.80;;;19.60;49.40;;;;;;5048518;28;21210;-86
2021/05/19 11:36:49;;;;;;;1.20;0.80;;;20.30;46.90;;;;;;5049176;28;20712;-85
2021/05/19 11:39:34;;;;;;;1.77;1.00;;;20.60;45.50;;;;;;5049627;28;20937;-86
2021/05/19 11:42:16;;;;;;;1.20;1.07;;;21.20;44.60;;;;;;5049816;28;20637;-86
2021/05/19 11:44:48;;;;;;;1.33;0.70;;;20.40;42.90;;;;;;5046307;28;20643;-87
2021/05/19 11:47:14;;;;;;;1.20;1.10;;;21.20;43.40;;;;;;5054432;28;20664;-87
2021/05/19 11:49:44;;;;;;;0.93;0.83;;;21.60;43.90;;;;;;5048218;28;20629;-86
2021/05/19 11:52:11;;;;;;;0.93;0.87;;;22.90;44.30;;;;;;5056053;28;20684;-87
2021/05/19 11:54:43;;;;;;;0.90;0.90;;;22.40;42.60;;;;;;5052998;28;20630;-87
2021/05/19 11:57:10;;;;;;;0.73;0.73;;;21.30;40.30;;;;;;5054762;28;20687;-88
2021/05/19 11:59:43;;;;;;;1.60;1.10;;;21.80;41.70;;;;;;5053343;28;20636;-87
2021/05/19 12:02:12;;;;;;;0.90;0.90;;;21.80;40.60;;;;;;5054345;28;20757;-88
2021/05/19 12:04:41;;;;;;;0.80;0.80;;;22.50;39.00;;;;;;5053253;28;21213;-87
2021/05/19 12:07:08;;;;;;;1.33;1.20;;;23.10;39.00;;;;;;5053681;28;20624;-87
2021/05/19 12:09:38;;;;;;;1.50;0.80;;;27.10;38.80;;;;;;5053137;28;20653;-87
2021/05/19 12:12:13;;;;;;;1.00;0.83;;;29.50;33.80;;;;;;5054090;28;20964;-88
2021/05/19 12:14:50;;;;;;;1.37;0.97;;;32.10;29.60;;;;;;5053762;28;20632;-87
2021/05/19 12:17:17;;;;;;;1.80;0.80;;;34.60;28.70;;;;;;5053731;28;20622;-87
2021/05/19 12:19:43;;;;;;;1.27;0.70;;;34.00;28.30;;;;;;5052959;28;20633;-87
2021/05/19 12:22:14;;;;;;;2.00;1.17;;;35.60;28.20;;;;;;5053526;28;20630;-88
2021/05/19 12:24:42;;;;;;;0.83;0.80;;;34.20;25.60;;;;;;5048157;28;20650;-87
2021/05/19 12:27:09;;;;;;;1.40;1.10;;;32.90;25.30;;;;;;5053179;28;20606;-88
2021/05/19 12:29:40;;;;;;;0.80;0.77;;;33.20;27.50;;;;;;5053100;28;20626;-88
2021/05/19 12:32:11;;;;;;;1.67;0.83;;;35.50;26.80;;;;;;5052605;28;20998;-89
2021/05/19 12:34:38;;;;;;;1.13;1.03;;;37.00;24.20;;;;;;5052725;28;20626;-89
2021/05/19 12:37:05;;;;;;;1.47;0.63;;;36.20;24.30;;;;;;5053635;28;20613;-90
2021/05/19 12:39:32;;;;;;;1.70;0.67;;;37.30;25.40;;;;;;5052476;28;21155;-90
2021/05/19 12:41:59;;;;;;;1.33;1.10;;;36.50;23.20;;;;;;5053185;28;20642;-89
2021/05/19 12:44:29;;;;;;;0.90;0.77;;;33.10;25.00;;;;;;5052754;28;20622;-89
2021/05/19 12:47:01;;;;;;;0.90;0.70;;;28.70;26.40;;;;;;5052910;28;20652;-88
2021/05/19 12:49:28;;;;;;;1.53;0.83;;;27.50;29.20;;;;;;5046749;28;20607;-88
2021/05/19 12:51:56;;;;;;;0.87;0.77;;;26.30;29.70;;;;;;5053132;28;20648;-87
2021/05/19 12:54:28;;;;;;;1.20;1.03;;;24.00;30.50;;;;;;5044425;28;20621;-87
2021/05/19 12:57:03;;;;;;;1.47;1.37;;;24.30;33.10;;;;;;5050385;28;20652;-90
2021/05/19 12:59:50;;;;;;;0.97;0.90;;;26.40;30.40;;;;;;5042294;28;20636;-89
2021/05/19 13:02:18;;;;;;;2.00;1.43;;;27.40;30.40;;;;;;5051123;28;21119;-89
2021/05/19 13:04:47;;;;;;;1.03;1.03;;;29.60;28.50;;;;;;5052847;28;21081;-87